sensor_id;sensor_type;location;lat;lon;timestamp;pressure;altitude;pressure_sealevel;temperature;humidity
3590;BME280;1809;48.470;9.226;2024-02-16T00:01:34;10450.16;;;10.12;100.00
3590;BME280;1809;48.470;9.226;2024-02-16T00:04:01;24139.03;;;10.07;100.00
3590;BME280;1809;48.470;9.226;2024-02-16T00:06:26;32515.31;;;10.00;100.00
3590;BME280;1809;48.470;9.226;2024-02-16T00:08:52;40906.06;;;9.86;100.00
3590;BME280;1809;48.470;9.226;2024-02-16T00:11:17;49654.31;;;9.76;100.00
3590;BME280;1809;48.470;9.226;2024-02-16T00:13:42;55387.78;;;9.72;100.00
3590;BME280;1809;48.470;9.226;2024-02-16T00:16:08;59441.81;;;9.71;100.00
3590;BME280;1809;48.470;9.226;2024-02-16T00:18:33;61129.34;;;9.67;100.00
3590;BME280;1809;48.470;9.226;2024-02-16T00:20:58;62814.94;;;9.61;100.00
3590;BME280;1809;48.470;9.226;2024-02-16T00:23:23;63833.38;;;9.64;100.00
3590;BME280;1809;48.470;9.226;2024-02-16T00:25:50;64167.19;;;9.60;100.00
3590;BME280;1809;48.470;9.226;2024-02-16T00:28:15;65184.50;;;9.61;100.00
3590;BME280;1809;48.470;9.226;2024-02-16T00:30:41;63825.06;;;9.56;100.00
3590;BME280;1809;48.470;9.226;2024-02-16T00:33:06;63483.50;;;9.53;100.00
3590;BME280;1809;48.470;9.226;2024-02-16T00:35:32;63825.06;;;9.56;100.00
3590;BME280;1809;48.470;9.226;2024-02-16T00:37:59;62805.72;;;9.52;100.00
3590;BME280;1809;48.470;9.226;2024-02-16T00:40:24;62132.63;;;9.56;100.00
3590;BME280;1809;48.470;9.226;2024-02-16T00:42:51;61116.91;;;9.55;100.00
3590;BME280;1809;48.470;9.226;2024-02-16T00:45:17;60443.03;;;9.57;100.00
3590;BME280;1809;48.470;9.226;2024-02-16T00:47:42;59770.72;;;9.61;100.00
3590;BME280;1809;48.470;9.226;2024-02-16T00:50:08;57403.03;;;9.59;100.00
3590;BME280;1809;48.470;9.226;2024-02-16T00:52:35;55043.41;;;9.64;100.00
3590;BME280;1809;48.470;9.226;2024-02-16T00:55:00;51000.75;;;9.72;100.00
3590;BME280;1809;48.470;9.226;2024-02-16T00:57:25;46279.91;;;9.69;100.00
3590;BME280;1809;48.470;9.226;2024-02-16T00:59:51;44260.47;;;9.70;100.00
3590;BME280;1809;48.470;9.226;2024-02-16T01:02:16;41911.53;;;9.80;100.00
3590;BME280;1809;48.470;9.226;2024-02-16T01:04:42;39556.84;;;9.79;100.00
3590;BME280;1809;48.470;9.226;2024-02-16T01:07:07;38214.56;;;9.83;100.00
3590;BME280;1809;48.470;9.226;2024-02-16T01:09:32;34518.31;;;9.80;100.00
3590;BME280;1809;48.470;9.226;2024-02-16T01:11:58;31836.84;;;9.85;100.00
3590;BME280;1809;48.470;9.226;2024-02-16T01:14:23;26189.19;;;9.79;100.00
3590;BME280;1809;48.470;9.226;2024-02-16T01:16:48;24310.38;;;9.76;100.00
3590;BME280;1809;48.470;9.226;2024-02-16T01:19:14;25798.03;;;9.76;100.00
3590;BME280;1809;48.470;9.226;2024-02-16T01:21:39;26418.88;;;9.71;100.00
3590;BME280;1809;48.470;9.226;2024-02-16T01:24:05;27452.25;;;9.78;100.00
3590;BME280;1809;48.470;9.226;2024-02-16T01:26:31;25685.34;;;9.75;100.00
3590;BME280;1809;48.470;9.226;2024-02-16T01:28:58;25026.16;;;9.74;100.00
3590;BME280;1809;48.470;9.226;2024-02-16T01:31:23;21482.53;;;9.83;100.00
3590;BME280;1809;48.470;9.226;2024-02-16T01:33:48;17088.91;;;9.83;100.00
3590;BME280;1809;48.470;9.226;2024-02-16T01:36:14;14206.31;;;9.90;100.00
3590;BME280;1809;48.470;9.226;2024-02-16T01:38:39;10074.28;;;9.89;100.00
3590;BME280;1809;48.470;9.226;2024-02-16T01:41:04;7299.63;;;9.86;100.00
3590;BME280;1809;48.470;9.226;2024-02-16T01:43:32;8361.75;;;9.91;100.00
3590;BME280;1809;48.470;9.226;2024-02-16T01:45:58;7286.63;;;9.86;100.00
3590;BME280;1809;48.470;9.226;2024-02-16T01:48:24;4102.03;;;9.93;100.00
3590;BME280;1809;48.470;9.226;2024-02-16T01:50:51;-757.09;;;9.89;100.00
3590;BME280;1809;48.470;9.226;2024-02-16T01:53:17;-1065.81;;;9.86;100.00
3590;BME280;1809;48.470;9.226;2024-02-16T01:55:45;-998.16;;;9.80;100.00
3590;BME280;1809;48.470;9.226;2024-02-16T01:58:11;-780.59;;;9.94;100.00
3590;BME280;1809;48.470;9.226;2024-02-16T02:00:36;-6813.09;;;9.86;100.00
3590;BME280;1809;48.470;9.226;2024-02-16T02:03:01;-5612.97;;;9.79;100.00
3590;BME280;1809;48.470;9.226;2024-02-16T02:05:27;-4182.53;;;9.79;100.00
3590;BME280;1809;48.470;9.226;2024-02-16T02:07:52;-1345.69;;;9.77;100.00
3590;BME280;1809;48.470;9.226;2024-02-16T02:10:18;2404.97;;;9.81;100.00
3590;BME280;1809;48.470;9.226;2024-02-16T02:12:44;4924.78;;;9.74;100.00
3590;BME280;1809;48.470;9.226;2024-02-16T02:15:09;5809.38;;;9.85;100.00
3590;BME280;1809;48.470;9.226;2024-02-16T02:17:36;2246.25;;;9.69;100.00
3590;BME280;1809;48.470;9.226;2024-02-16T02:20:03;6563.81;;;9.60;100.00
3590;BME280;1809;48.470;9.226;2024-02-16T02:22:35;10405.06;;;9.56;100.00
3590;BME280;1809;48.470;9.226;2024-02-16T02:25:01;13156.13;;;9.52;100.00
3590;BME280;1809;48.470;9.226;2024-02-16T02:27:26;16843.13;;;9.50;100.00
3590;BME280;1809;48.470;9.226;2024-02-16T02:29:51;22662.69;;;9.51;100.00
3590;BME280;1809;48.470;9.226;2024-02-16T02:32:17;27127.69;;;9.47;100.00
3590;BME280;1809;48.470;9.226;2024-02-16T02:34:42;30141.56;;;9.46;100.00
3590;BME280;1809;48.470;9.226;2024-02-16T02:37:08;31816.22;;;9.44;100.00
3590;BME280;1809;48.470;9.226;2024-02-16T02:39:34;32823.56;;;9.47;100.00
3590;BME280;1809;48.470;9.226;2024-02-16T02:41:59;32823.56;;;9.47;100.00
3590;BME280;1809;48.470;9.226;2024-02-16T02:44:25;32489.31;;;9.49;100.00
3590;BME280;1809;48.470;9.226;2024-02-16T02:46:51;32490.34;;;9.51;100.00
3590;BME280;1809;48.470;9.226;2024-02-16T02:49:17;31821.31;;;9.54;100.00
3590;BME280;1809;48.470;9.226;2024-02-16T02:51:42;29473.41;;;9.50;100.00
3590;BME280;1809;48.470;9.226;2024-02-16T02:54:08;28804.41;;;9.52;100.00
3590;BME280;1809;48.470;9.226;2024-02-16T02:56:33;28806.00;;;9.56;100.00
3590;BME280;1809;48.470;9.226;2024-02-16T02:58:59;27130.50;;;9.53;100.00
3590;BME280;1809;48.470;9.226;2024-02-16T03:01:24;26461.41;;;9.54;100.00
3590;BME280;1809;48.470;9.226;2024-02-16T03:03:49;26461.63;;;9.55;100.00
3590;BME280;1809;48.470;9.226;2024-02-16T03:06:18;24585.72;;;9.58;100.00
3590;BME280;1809;48.470;9.226;2024-02-16T03:08:44;22350.19;;;9.61;100.00
3590;BME280;1809;48.470;9.226;2024-02-16T03:11:09;21788.81;;;9.61;100.00
3590;BME280;1809;48.470;9.226;2024-02-16T03:13:36;20797.66;;;9.57;100.00
3590;BME280;1809;48.470;9.226;2024-02-16T03:16:01;20799.94;;;9.64;100.00
3590;BME280;1809;48.470;9.226;2024-02-16T03:18:32;17632.25;;;9.56;100.00
3590;BME280;1809;48.470;9.226;2024-02-16T03:20:58;16207.66;;;9.63;100.00
3590;BME280;1809;48.470;9.226;2024-02-16T03:23:23;12801.31;;;9.62;100.00
3590;BME280;1809;48.470;9.226;2024-02-16T03:25:49;13101.16;;;9.63;100.00
3590;BME280;1809;48.470;9.226;2024-02-16T03:28:14;14776.22;;;9.73;100.00
3590;BME280;1809;48.470;9.226;2024-02-16T03:30:41;9609.28;;;9.78;100.00
3590;BME280;1809;48.470;9.226;2024-02-16T03:33:07;6791.25;;;9.73;100.00
3590;BME280;1809;48.470;9.226;2024-02-16T03:35:33;8200.34;;;9.68;100.00
3590;BME280;1809;48.470;9.226;2024-02-16T03:37:58;9889.75;;;9.73;100.00
3590;BME280;1809;48.470;9.226;2024-02-16T03:40:24;6713.34;;;9.74;100.00
3590;BME280;1809;48.470;9.226;2024-02-16T03:42:50;-2264.00;;;9.80;100.00
3590;BME280;1809;48.470;9.226;2024-02-16T03:45:15;-7162.09;;;9.81;100.00
3590;BME280;1809;48.470;9.226;2024-02-16T03:47:41;-12488.22;;;9.73;100.00
3590;BME280;1809;48.470;9.226;2024-02-16T03:50:10;-14692.94;;;9.75;100.00
3590;BME280;1809;48.470;9.226;2024-02-16T03:52:36;-15942.13;;;9.91;100.00
3590;BME280;1809;48.470;9.226;2024-02-16T03:55:01;-15729.78;;;9.79;100.00
3590;BME280;1809;48.470;9.226;2024-02-16T03:57:26;-14231.22;;;9.67;100.00
3590;BME280;1809;48.470;9.226;2024-02-16T03:59:52;-10386.09;;;9.60;100.00
3590;BME280;1809;48.470;9.226;2024-02-16T04:02:17;-3315.09;;;9.54;100.00
3590;BME280;1809;48.470;9.226;2024-02-16T04:04:43;4307.59;;;9.51;100.00
3590;BME280;1809;48.470;9.226;2024-02-16T04:07:09;15536.75;;;9.49;100.00
3590;BME280;1809;48.470;9.226;2024-02-16T04:09:34;23782.06;;;9.47;100.00
3590;BME280;1809;48.470;9.226;2024-02-16T04:12:03;28130.53;;;9.43;100.00
3590;BME280;1809;48.470;9.226;2024-02-16T04:14:29;31814.69;;;9.41;100.00
3590;BME280;1809;48.470;9.226;2024-02-16T04:16:55;33488.91;;;9.37;100.00
3590;BME280;1809;48.470;9.226;2024-02-16T04:19:23;29803.22;;;9.39;100.00
3590;BME280;1809;48.470;9.226;2024-02-16T04:21:48;20712.00;;;9.42;100.00
3590;BME280;1809;48.470;9.226;2024-02-16T04:24:13;9214.97;;;9.49;100.00
3590;BME280;1809;48.470;9.226;2024-02-16T04:26:38;107.59;;;9.50;100.00
3590;BME280;1809;48.470;9.226;2024-02-16T04:29:04;-571.94;;;9.48;100.00
3590;BME280;1809;48.470;9.226;2024-02-16T04:31:29;756.19;;;9.46;100.00
3590;BME280;1809;48.470;9.226;2024-02-16T04:33:55;2354.69;;;9.43;100.00
3590;BME280;1809;48.470;9.226;2024-02-16T04:36:20;6937.13;;;9.50;100.00
3590;BME280;1809;48.470;9.226;2024-02-16T04:38:45;9219.63;;;9.45;100.00
3590;BME280;1809;48.470;9.226;2024-02-16T04:41:10;14323.44;;;9.41;100.00
3590;BME280;1809;48.470;9.226;2024-02-16T04:43:36;19086.16;;;9.50;100.00
3590;BME280;1809;48.470;9.226;2024-02-16T04:46:02;19361.06;;;9.45;100.00
3590;BME280;1809;48.470;9.226;2024-02-16T04:48:27;21035.50;;;9.42;100.00
3590;BME280;1809;48.470;9.226;2024-02-16T04:50:54;22076.28;;;9.39;100.00
3590;BME280;1809;48.470;9.226;2024-02-16T04:53:19;21010.91;;;9.54;100.00
3590;BME280;1809;48.470;9.226;2024-02-16T04:55:44;-146.88;;;9.67;100.00
3590;BME280;1809;48.470;9.226;2024-02-16T04:58:10;-15757.25;;;9.76;100.00
3590;BME280;1809;48.470;9.226;2024-02-16T05:00:36;-16438.38;;;9.66;100.00
3590;BME280;1809;48.470;9.226;2024-02-16T05:03:02;-16437.69;;;9.64;100.00
3590;BME280;1809;48.470;9.226;2024-02-16T05:05:28;-16438.09;;;9.65;100.00
3590;BME280;1809;48.470;9.226;2024-02-16T05:07:53;-16441.34;;;9.77;100.00
3590;BME280;1809;48.470;9.226;2024-02-16T05:10:19;-16439.50;;;9.70;100.00
3590;BME280;1809;48.470;9.226;2024-02-16T05:12:45;-16440.91;;;9.76;100.00
3590;BME280;1809;48.470;9.226;2024-02-16T05:15:10;-16440.91;;;9.76;100.00
3590;BME280;1809;48.470;9.226;2024-02-16T05:17:38;-16445.56;;;9.92;100.00
3590;BME280;1809;48.470;9.226;2024-02-16T05:20:09;-16445.28;;;9.91;100.00
3590;BME280;1809;48.470;9.226;2024-02-16T05:22:35;-16450.75;;;10.11;100.00
3590;BME280;1809;48.470;9.226;2024-02-16T05:25:00;-16454.13;;;10.23;100.00
3590;BME280;1809;48.470;9.226;2024-02-16T05:27:25;-16455.13;;;10.27;100.00
3590;BME280;1809;48.470;9.226;2024-02-16T05:29:51;-16457.22;;;10.34;100.00
3590;BME280;1809;48.470;9.226;2024-02-16T05:32:17;-16455.53;;;10.28;100.00
3590;BME280;1809;48.470;9.226;2024-02-16T05:34:42;-16456.38;;;10.31;100.00
3590;BME280;1809;48.470;9.226;2024-02-16T05:37:07;-16455.81;;;10.29;100.00
3590;BME280;1809;48.470;9.226;2024-02-16T05:39:35;-16456.22;;;10.31;100.00
3590;BME280;1809;48.470;9.226;2024-02-16T05:42:08;-16456.94;;;10.33;100.00
3590;BME280;1809;48.470;9.226;2024-02-16T05:44:33;-16455.53;;;10.28;100.00
3590;BME280;1809;48.470;9.226;2024-02-16T05:46:59;-16454.13;;;10.23;100.00
3590;BME280;1809;48.470;9.226;2024-02-16T05:49:24;-16451.88;;;10.15;100.00
3590;BME280;1809;48.470;9.226;2024-02-16T05:51:50;-16448.78;;;10.04;100.00
3590;BME280;1809;48.470;9.226;2024-02-16T05:54:38;-16446.53;;;9.96;100.00
3590;BME280;1809;48.470;9.226;2024-02-16T05:57:03;-16448.78;;;10.04;100.00
3590;BME280;1809;48.470;9.226;2024-02-16T05:59:29;-16446.25;;;9.95;100.00
3590;BME280;1809;48.470;9.226;2024-02-16T06:01:54;-16444.84;;;9.90;100.00
3590;BME280;1809;48.470;9.226;2024-02-16T06:04:19;-16444.44;;;9.88;100.00
3590;BME280;1809;48.470;9.226;2024-02-16T06:06:45;-16447.66;;;10.00;100.00
3590;BME280;1809;48.470;9.226;2024-02-16T06:09:10;-16444.16;;;9.87;100.00
3590;BME280;1809;48.470;9.226;2024-02-16T06:11:38;-16441.63;;;9.78;100.00
3590;BME280;1809;48.470;9.226;2024-02-16T06:14:04;-16440.63;;;9.74;100.00
3590;BME280;1809;48.470;9.226;2024-02-16T06:16:29;-16438.53;;;9.67;100.00
3590;BME280;1809;48.470;9.226;2024-02-16T06:18:55;-16438.38;;;9.66;100.00
3590;BME280;1809;48.470;9.226;2024-02-16T06:21:20;-16436.41;;;9.59;100.00
3590;BME280;1809;48.470;9.226;2024-02-16T06:23:45;-16435.56;;;9.56;100.00
3590;BME280;1809;48.470;9.226;2024-02-16T06:26:11;-16434.75;;;9.53;100.00
3590;BME280;1809;48.470;9.226;2024-02-16T06:28:36;-16435.88;;;9.57;100.00
3590;BME280;1809;48.470;9.226;2024-02-16T06:31:02;-16437.25;;;9.62;100.00
3590;BME280;1809;48.470;9.226;2024-02-16T06:33:27;-16437.53;;;9.63;100.00
3590;BME280;1809;48.470;9.226;2024-02-16T06:35:52;-16439.50;;;9.70;100.00
3590;BME280;1809;48.470;9.226;2024-02-16T06:38:18;-16442.59;;;9.82;100.00
3590;BME280;1809;48.470;9.226;2024-02-16T06:40:43;-16449.22;;;10.05;100.00
3590;BME280;1809;48.470;9.226;2024-02-16T06:43:08;-16448.78;;;10.04;100.00
3590;BME280;1809;48.470;9.226;2024-02-16T06:45:34;-16449.63;;;10.07;100.00
3590;BME280;1809;48.470;9.226;2024-02-16T06:47:59;-16451.59;;;10.14;100.00
3590;BME280;1809;48.470;9.226;2024-02-16T06:50:25;-16456.66;;;10.32;100.00
3590;BME280;1809;48.470;9.226;2024-02-16T06:52:50;-16461.16;;;10.48;100.00
3590;BME280;1809;48.470;9.226;2024-02-16T06:55:16;-16458.63;;;10.39;100.00
3590;BME280;1809;48.470;9.226;2024-02-16T06:57:41;-16455.97;;;10.30;100.00
3590;BME280;1809;48.470;9.226;2024-02-16T07:00:07;-16460.44;;;10.46;100.00
3590;BME280;1809;48.470;9.226;2024-02-16T07:02:33;-16457.50;;;10.35;100.00
3590;BME280;1809;48.470;9.226;2024-02-16T07:04:59;-16454.41;;;10.24;100.00
3590;BME280;1809;48.470;9.226;2024-02-16T07:07:24;-16453.28;;;10.20;100.00
3590;BME280;1809;48.470;9.226;2024-02-16T07:09:49;-16449.34;;;10.06;100.00
3590;BME280;1809;48.470;9.226;2024-02-16T07:12:15;-16449.78;;;10.07;100.00
3590;BME280;1809;48.470;9.226;2024-02-16T07:14:40;-16447.94;;;10.01;100.00
3590;BME280;1809;48.470;9.226;2024-02-16T07:17:06;-16447.38;;;9.99;100.00
3590;BME280;1809;48.470;9.226;2024-02-16T07:19:34;-16446.53;;;9.96;100.00
3590;BME280;1809;48.470;9.226;2024-02-16T07:21:59;-16448.66;;;10.03;100.00
3590;BME280;1809;48.470;9.226;2024-02-16T07:24:25;-16451.31;;;10.13;100.00
3590;BME280;1809;48.470;9.226;2024-02-16T07:26:52;-16452.44;;;10.17;100.00
3590;BME280;1809;48.470;9.226;2024-02-16T07:29:18;-16451.59;;;10.14;100.00
3590;BME280;1809;48.470;9.226;2024-02-16T07:31:44;-16451.88;;;10.15;100.00
3590;BME280;1809;48.470;9.226;2024-02-16T07:34:09;-16456.66;;;10.32;100.00
3590;BME280;1809;48.470;9.226;2024-02-16T07:36:36;-16455.81;;;10.29;100.00
3590;BME280;1809;48.470;9.226;2024-02-16T07:39:02;-16457.50;;;10.35;100.00
3590;BME280;1809;48.470;9.226;2024-02-16T07:41:30;-16457.22;;;10.34;100.00
3590;BME280;1809;48.470;9.226;2024-02-16T07:43:55;-16456.38;;;10.31;100.00
3590;BME280;1809;48.470;9.226;2024-02-16T07:46:20;-16455.81;;;10.29;100.00
3590;BME280;1809;48.470;9.226;2024-02-16T07:48:45;-16457.50;;;10.35;100.00
3590;BME280;1809;48.470;9.226;2024-02-16T07:51:11;-16458.78;;;10.40;100.00
3590;BME280;1809;48.470;9.226;2024-02-16T07:53:36;-16457.34;;;10.35;100.00
3590;BME280;1809;48.470;9.226;2024-02-16T07:56:03;-16457.34;;;10.35;100.00
3590;BME280;1809;48.470;9.226;2024-02-16T07:58:29;-16456.09;;;10.30;100.00
3590;BME280;1809;48.470;9.226;2024-02-16T08:00:54;-16456.38;;;10.31;100.00
3590;BME280;1809;48.470;9.226;2024-02-16T08:03:20;-16458.63;;;10.39;100.00
3590;BME280;1809;48.470;9.226;2024-02-16T08:05:45;-16458.91;;;10.40;100.00
3590;BME280;1809;48.470;9.226;2024-02-16T08:08:11;-16462.00;;;10.51;100.00
3590;BME280;1809;48.470;9.226;2024-02-16T08:10:36;-16461.84;;;10.51;100.00
3590;BME280;1809;48.470;9.226;2024-02-16T08:13:01;-16462.00;;;10.51;100.00
3590;BME280;1809;48.470;9.226;2024-02-16T08:15:27;-16462.69;;;10.54;100.00
3590;BME280;1809;48.470;9.226;2024-02-16T08:17:52;-16464.25;;;10.59;100.00
3590;BME280;1809;48.470;9.226;2024-02-16T08:20:17;-16466.22;;;10.66;100.00
3590;BME280;1809;48.470;9.226;2024-02-16T08:22:43;-16469.88;;;10.79;100.00
3590;BME280;1809;48.470;9.226;2024-02-16T08:25:09;-16469.88;;;10.79;100.00
3590;BME280;1809;48.470;9.226;2024-02-16T08:27:34;-16470.41;;;10.82;100.00
3590;BME280;1809;48.470;9.226;2024-02-16T08:29:59;-16471.13;;;10.84;100.00
3590;BME280;1809;48.470;9.226;2024-02-16T08:32:27;-16470.41;;;10.82;100.00
3590;BME280;1809;48.470;9.226;2024-02-16T08:34:53;-16469.56;;;10.78;100.00
3590;BME280;1809;48.470;9.226;2024-02-16T08:37:18;-16467.34;;;10.70;100.00
3590;BME280;1809;48.470;9.226;2024-02-16T08:39:43;-16473.66;;;10.93;100.00
3590;BME280;1809;48.470;9.226;2024-02-16T08:42:09;-16472.09;;;10.88;100.00
3590;BME280;1809;48.470;9.226;2024-02-16T08:44:36;-16479.56;;;11.14;100.00
3590;BME280;1809;48.470;9.226;2024-02-16T08:47:02;-16486.84;;;11.41;100.00
3590;BME280;1809;48.470;9.226;2024-02-16T08:49:28;-16491.47;;;11.57;100.00
3590;BME280;1809;48.470;9.226;2024-02-16T08:51:53;-16497.09;;;11.77;100.00
3590;BME280;1809;48.470;9.226;2024-02-16T08:54:18;-16499.34;;;11.85;100.00
3590;BME280;1809;48.470;9.226;2024-02-16T08:56:45;-16501.59;;;11.94;100.00
3590;BME280;1809;48.470;9.226;2024-02-16T08:59:10;-16503.00;;;11.99;100.00
3590;BME280;1809;48.470;9.226;2024-02-16T09:01:37;-16509.75;;;12.23;100.00
3590;BME280;1809;48.470;9.226;2024-02-16T09:04:03;-16512.25;;;12.32;100.00
3590;BME280;1809;48.470;9.226;2024-02-16T09:06:29;-16515.91;;;12.45;100.00
3590;BME280;1809;48.470;9.226;2024-02-16T09:08:55;-16520.13;;;12.60;100.00
3590;BME280;1809;48.470;9.226;2024-02-16T09:11:21;-16518.72;;;12.55;100.00
3590;BME280;1809;48.470;9.226;2024-02-16T09:13:47;-16520.41;;;12.61;100.00
3590;BME280;1809;48.470;9.226;2024-02-16T09:16:12;-16525.03;;;12.78;100.00
3590;BME280;1809;48.470;9.226;2024-02-16T09:18:38;-16533.31;;;13.08;100.00
3590;BME280;1809;48.470;9.226;2024-02-16T09:21:04;-16541.72;;;13.38;100.00
3590;BME280;1809;48.470;9.226;2024-02-16T09:23:32;-16548.75;;;13.63;100.00
3590;BME280;1809;48.470;9.226;2024-02-16T09:25:57;-16555.75;;;13.88;100.00
3590;BME280;1809;48.470;9.226;2024-02-16T09:28:24;-16560.81;;;14.07;100.00
3590;BME280;1809;48.470;9.226;2024-02-16T09:30:49;-16560.94;;;14.07;100.00
3590;BME280;1809;48.470;9.226;2024-02-16T09:33:15;-16563.59;;;14.17;100.00
3590;BME280;1809;48.470;9.226;2024-02-16T09:35:40;-16561.50;;;14.09;100.00
3590;BME280;1809;48.470;9.226;2024-02-16T09:38:06;-16566.28;;;14.26;100.00
3590;BME280;1809;48.470;9.226;2024-02-16T09:40:32;-16568.09;;;14.33;100.00
3590;BME280;1809;48.470;9.226;2024-02-16T09:42:57;-16569.78;;;14.39;100.00
3590;BME280;1809;48.470;9.226;2024-02-16T09:45:23;-16576.66;;;14.64;100.00
3590;BME280;1809;48.470;9.226;2024-02-16T09:47:50;-16577.63;;;14.67;100.00
3590;BME280;1809;48.470;9.226;2024-02-16T09:50:15;-16580.44;;;14.77;100.00
3590;BME280;1809;48.470;9.226;2024-02-16T09:52:42;-16582.81;;;14.86;100.00
3590;BME280;1809;48.470;9.226;2024-02-16T09:55:12;-16584.63;;;14.92;100.00
3590;BME280;1809;48.470;9.226;2024-02-16T09:57:38;-16582.41;;;14.84;100.00
3590;BME280;1809;48.470;9.226;2024-02-16T10:00:04;-16588.84;;;15.07;100.00
3590;BME280;1809;48.470;9.226;2024-02-16T10:02:49;-16594.31;;;15.27;100.00
3590;BME280;1809;48.470;9.226;2024-02-16T10:05:16;-16598.78;;;15.43;100.00
3590;BME280;1809;48.470;9.226;2024-02-16T10:07:42;-16603.44;;;15.60;100.00
3590;BME280;1809;48.470;9.226;2024-02-16T10:10:25;-16611.56;;;15.89;100.00
3590;BME280;1809;48.470;9.226;2024-02-16T10:13:04;-16615.06;;;16.02;100.00
3590;BME280;1809;48.470;9.226;2024-02-16T10:15:30;-16625.56;;;16.40;100.00
3590;BME280;1809;48.470;9.226;2024-02-16T10:18:05;-16628.91;;;16.52;100.00
3590;BME280;1809;48.470;9.226;2024-02-16T10:20:32;-16637.59;;;16.83;100.00
3590;BME280;1809;48.470;9.226;2024-02-16T10:23:07;-16640.53;;;16.94;100.00
3590;BME280;1809;48.470;9.226;2024-02-16T10:25:35;-16642.66;;;17.01;100.00
3590;BME280;1809;48.470;9.226;2024-02-16T10:28:06;-16648.94;;;17.24;100.00
3590;BME280;1809;48.470;9.226;2024-02-16T10:30:35;-16660.56;;;17.66;100.00
3590;BME280;1809;48.470;9.226;2024-02-16T10:33:02;-16665.59;;;17.84;100.00
3590;BME280;1809;48.470;9.226;2024-02-16T10:35:29;-16668.69;;;17.95;100.00
3590;BME280;1809;48.470;9.226;2024-02-16T10:37:55;-16670.38;;;18.01;100.00
3590;BME280;1809;48.470;9.226;2024-02-16T10:40:22;-16683.25;;;18.48;100.00
3590;BME280;1809;48.470;9.226;2024-02-16T10:42:50;-16689.69;;;18.71;100.00
3590;BME280;1809;48.470;9.226;2024-02-16T10:45:18;-16694.03;;;18.87;100.00
3590;BME280;1809;48.470;9.226;2024-02-16T10:47:45;-16695.41;;;18.92;100.00
3590;BME280;1809;48.470;9.226;2024-02-16T10:50:11;-16697.78;;;19.00;100.00
3590;BME280;1809;48.470;9.226;2024-02-16T10:52:38;-16688.44;;;18.66;100.00
3590;BME280;1809;48.470;9.226;2024-02-16T10:55:05;-16687.16;;;18.62;100.00
3590;BME280;1809;48.470;9.226;2024-02-16T10:57:30;-16685.22;;;18.55;100.00
3590;BME280;1809;48.470;9.226;2024-02-16T10:59:59;-16691.63;;;18.78;100.00
3590;BME280;1809;48.470;9.226;2024-02-16T11:02:24;-16685.34;;;18.55;100.00
3590;BME280;1809;48.470;9.226;2024-02-16T11:04:51;-16681.72;;;18.42;100.00
3590;BME280;1809;48.470;9.226;2024-02-16T11:07:18;-16676.53;;;18.23;100.00
3590;BME280;1809;48.470;9.226;2024-02-16T11:09:44;-16666.03;;;17.86;100.00
3590;BME280;1809;48.470;9.226;2024-02-16T11:12:12;-16666.44;;;17.87;100.00
3590;BME280;1809;48.470;9.226;2024-02-16T11:14:39;-16659.19;;;17.61;100.00
3590;BME280;1809;48.470;9.226;2024-02-16T11:17:23;-16656.09;;;17.50;100.00
3590;BME280;1809;48.470;9.226;2024-02-16T11:19:50;-16655.53;;;17.48;100.00
3590;BME280;1809;48.470;9.226;2024-02-16T11:22:19;-16653.84;;;17.42;100.00
3590;BME280;1809;48.470;9.226;2024-02-16T11:24:53;-16655.94;;;17.49;100.00
3590;BME280;1809;48.470;9.226;2024-02-16T11:27:19;-16657.50;;;17.55;100.00
3590;BME280;1809;48.470;9.226;2024-02-16T11:29:45;-16655.25;;;17.47;100.00
3590;BME280;1809;48.470;9.226;2024-02-16T11:32:11;-16653.72;;;17.41;100.00
3590;BME280;1809;48.470;9.226;2024-02-16T11:34:37;-16653.28;;;17.40;100.00
3590;BME280;1809;48.470;9.226;2024-02-16T11:37:05;-16654.84;;;17.45;100.00
3590;BME280;1809;48.470;9.226;2024-02-16T11:39:31;-16655.53;;;17.48;100.00
3590;BME280;1809;48.470;9.226;2024-02-16T11:42:11;-16654.97;;;17.46;100.00
3590;BME280;1809;48.470;9.226;2024-02-16T11:44:38;-16654.00;;;17.42;100.00
3590;BME280;1809;48.470;9.226;2024-02-16T11:47:08;-16655.38;;;17.47;100.00
3590;BME280;1809;48.470;9.226;2024-02-16T11:49:42;-16654.97;;;17.46;100.00
3590;BME280;1809;48.470;9.226;2024-02-16T11:52:07;-16658.63;;;17.59;100.00
3590;BME280;1809;48.470;9.226;2024-02-16T11:54:33;-16655.53;;;17.48;100.00
3590;BME280;1809;48.470;9.226;2024-02-16T11:56:59;-16658.19;;;17.57;100.00
3590;BME280;1809;48.470;9.226;2024-02-16T11:59:24;-16661.41;;;17.69;100.00
3590;BME280;1809;48.470;9.226;2024-02-16T12:01:57;-16657.22;;;17.54;100.00
3590;BME280;1809;48.470;9.226;2024-02-16T12:04:27;-16658.47;;;17.58;100.00
3590;BME280;1809;48.470;9.226;2024-02-16T12:07:02;-16665.34;;;17.83;100.00
3590;BME280;1809;48.470;9.226;2024-02-16T12:09:28;-16669.25;;;17.97;100.00
3590;BME280;1809;48.470;9.226;2024-02-16T12:11:57;-16668.28;;;17.94;100.00
3590;BME280;1809;48.470;9.226;2024-02-16T12:14:23;-16680.44;;;18.38;100.00
3590;BME280;1809;48.470;9.226;2024-02-16T12:19:16;-16681.56;;;18.42;100.00
3590;BME280;1809;48.470;9.226;2024-02-16T12:21:42;-16684.22;;;18.51;100.00
3590;BME280;1809;48.470;9.226;2024-02-16T12:24:07;-16686.88;;;18.61;100.00
3590;BME280;1809;48.470;9.226;2024-02-16T12:26:32;-16685.22;;;18.55;100.00
3590;BME280;1809;48.470;9.226;2024-02-16T12:28:58;-16687.16;;;18.62;100.00
3590;BME280;1809;48.470;9.226;2024-02-16T12:31:26;-16689.69;;;18.71;100.00
3590;BME280;1809;48.470;9.226;2024-02-16T12:33:52;-16687.72;;;18.64;100.00
3590;BME280;1809;48.470;9.226;2024-02-16T12:36:17;-16686.06;;;18.58;100.00
3590;BME280;1809;48.470;9.226;2024-02-16T12:38:43;-16685.50;;;18.56;100.00
3590;BME280;1809;48.470;9.226;2024-02-16T12:41:08;-16686.31;;;18.59;100.00
3590;BME280;1809;48.470;9.226;2024-02-16T12:43:34;-16684.09;;;18.51;100.00
3590;BME280;1809;48.470;9.226;2024-02-16T12:45:59;-16685.78;;;18.57;100.00
3590;BME280;1809;48.470;9.226;2024-02-16T12:48:27;-16688.44;;;18.66;100.00
3590;BME280;1809;48.470;9.226;2024-02-16T12:50:54;-16691.63;;;18.78;100.00
3590;BME280;1809;48.470;9.226;2024-02-16T12:53:19;-16694.16;;;18.87;100.00
3590;BME280;1809;48.470;9.226;2024-02-16T12:55:46;-16695.56;;;18.92;100.00
3590;BME280;1809;48.470;9.226;2024-02-16T12:58:11;-16698.06;;;19.01;100.00
3590;BME280;1809;48.470;9.226;2024-02-16T13:00:38;-16703.25;;;19.20;100.00
3590;BME280;1809;48.470;9.226;2024-02-16T13:03:03;-16706.75;;;19.32;100.00
3590;BME280;1809;48.470;9.226;2024-02-16T13:05:29;-16709.81;;;19.44;100.00
3590;BME280;1809;48.470;9.226;2024-02-16T13:07:57;-16704.78;;;19.25;100.00